Time;durP1;ratioP1;P1;durP2;ratioP2;P2;SDS_P1;SDS_P2;PMS_P1;PMS_P2;Temp;Humidity;BMP_temperature;BMP_pressure;BME280_temperature;BME280_humidity;BME280_pressure;Samples;Min_cycle;Max_cycle;Signal;HPM_P1;HPM_P2
2023/09/14 00:01:00;;;;;;;26.70;16.50;;;13.10;95.90;;;;;;5036334;28;19950;-89
2023/09/14 00:03:25;;;;;;;;;;;13.10;96.30;;;;;;5025316;28;20041;-91
2023/09/14 00:05:51;;;;;;;38.60;16.48;;;13.00;96.00;;;;;;5029985;28;19909;-87
2023/09/14 00:08:17;;;;;;;31.38;16.50;;;12.90;96.40;;;;;;5022915;28;20048;-87
2023/09/14 00:10:43;;;;;;;31.10;18.30;;;12.90;96.70;;;;;;5035096;28;20029;-87
2023/09/14 00:13:10;;;;;;;30.15;17.42;;;12.90;96.80;;;;;;5031189;28;20031;-87
2023/09/14 00:15:38;;;;;;;30.75;17.42;;;12.90;97.00;;;;;;5037993;28;20037;-86
2023/09/14 00:18:04;;;;;;;50.97;21.05;;;12.90;97.10;;;;;;5033805;28;20386;-88
2023/09/14 00:20:31;;;;;;;43.08;20.27;;;12.80;97.20;;;;;;5038203;28;20387;-87
2023/09/14 00:22:57;;;;;;;37.90;18.75;;;12.80;97.20;;;;;;5050343;28;20030;-87
2023/09/14 00:25:24;;;;;;;33.47;18.73;;;12.80;97.30;;;;;;5054685;28;20398;-87
2023/09/14 00:27:52;;;;;;;40.10;17.45;;;12.90;97.30;;;;;;5035094;28;20032;-87
2023/09/14 00:30:21;;;;;;;;;;;12.90;97.40;;;;;;5038331;28;20080;-85
2023/09/14 00:32:49;;;;;;;28.30;17.88;;;12.90;97.00;;;;;;5028645;28;19960;-88
2023/09/14 00:35:15;;;;;;;28.30;17.30;;;12.80;97.20;;;;;;5034027;28;20056;-88
2023/09/14 00:37:42;;;;;;;31.90;16.95;;;12.80;97.40;;;;;;5026841;28;20552;-87
2023/09/14 00:40:10;;;;;;;37.25;18.45;;;12.80;97.60;;;;;;5031907;28;20493;-88
2023/09/14 00:42:41;;;;;;;38.03;19.40;;;12.80;97.60;;;;;;5017982;28;20029;-87
2023/09/14 00:45:12;;;;;;;37.13;21.38;;;12.70;97.70;;;;;;5033787;28;20036;-86
2023/09/14 00:47:49;;;;;;;32.03;17.35;;;12.70;97.80;;;;;;5034438;28;20060;-85
2023/09/14 00:50:16;;;;;;;37.80;21.40;;;12.70;97.90;;;;;;5033994;28;20051;-87
2023/09/14 00:52:46;;;;;;;36.97;21.08;;;12.70;97.90;;;;;;5036270;28;20022;-86
2023/09/14 00:55:17;;;;;;;38.47;22.15;;;12.70;98.10;;;;;;5030866;28;20018;-86
2023/09/14 00:57:44;;;;;;;45.28;23.60;;;12.70;98.20;;;;;;5016226;28;20021;-87
2023/09/14 01:00:11;;;;;;;33.10;21.52;;;12.60;98.20;;;;;;5034132;28;20025;-86
2023/09/14 01:02:39;;;;;;;42.30;22.60;;;12.60;98.30;;;;;;5015973;28;20513;-87
2023/09/14 01:05:06;;;;;;;43.13;22.20;;;12.60;98.30;;;;;;5034303;28;20037;-87
2023/09/14 01:07:33;;;;;;;37.40;20.55;;;12.50;98.40;;;;;;5033796;28;20021;-88
2023/09/14 01:09:59;;;;;;;41.05;23.40;;;12.60;98.50;;;;;;5020180;28;20037;-89
2023/09/14 01:12:26;;;;;;;33.55;21.77;;;12.50;98.60;;;;;;5022318;28;20033;-90
2023/09/14 01:15:27;;;;;;;37.83;22.15;;;12.50;98.70;;;;;;5039039;28;20045;-88
2023/09/14 01:18:38;;;;;;;31.73;21.13;;;12.50;98.80;;;;;;5011285;28;20383;-88
2023/09/14 01:21:24;;;;;;;38.55;23.15;;;12.50;98.80;;;;;;5030943;28;20041;-88
2023/09/14 01:24:22;;;;;;;31.38;20.60;;;12.40;98.90;;;;;;5043874;28;20025;-87
2023/09/14 01:26:49;;;;;;;42.85;22.48;;;12.40;99.00;;;;;;5012941;28;20022;-88
2023/09/14 01:29:15;;;;;;;38.10;21.92;;;12.30;99.00;;;;;;5045311;28;20646;-90
2023/09/14 01:31:42;;;;;;;34.88;21.23;;;12.30;99.20;;;;;;5026857;28;20097;-87
2023/09/14 01:34:08;;;;;;;46.60;22.15;;;12.30;99.30;;;;;;5016271;28;20048;-88
2023/09/14 01:36:47;;;;;;;35.08;21.13;;;12.30;99.40;;;;;;5048955;28;20118;-88
2023/09/14 01:39:13;;;;;;;29.42;20.10;;;12.30;99.60;;;;;;5020731;28;20018;-87
2023/09/14 01:41:39;;;;;;;31.67;20.38;;;12.30;99.60;;;;;;5019248;28;20017;-85
2023/09/14 01:44:05;;;;;;;32.53;21.20;;;12.30;99.70;;;;;;5036973;28;20187;-83
2023/09/14 01:46:35;;;;;;;41.22;21.85;;;12.30;99.80;;;;;;5043214;28;20021;-86
2023/09/14 01:49:01;;;;;;;34.50;21.35;;;12.30;99.90;;;;;;5014156;28;20037;-85
2023/09/14 01:51:28;;;;;;;49.67;22.40;;;12.30;99.90;;;;;;5023441;28;20018;-84
2023/09/14 01:53:54;;;;;;;46.20;22.38;;;12.30;99.90;;;;;;5033351;28;20029;-86
2023/09/14 01:56:20;;;;;;;35.08;22.23;;;12.30;99.90;;;;;;5053904;28;20159;-86
2023/09/14 01:58:46;;;;;;;39.85;24.33;;;12.30;99.90;;;;;;5037084;28;20473;-87
2023/09/14 02:01:12;;;;;;;48.65;23.73;;;12.30;99.90;;;;;;5036647;28;20022;-86
2023/09/14 02:03:38;;;;;;;38.35;22.83;;;12.20;99.90;;;;;;5015824;28;20037;-84
2023/09/14 02:06:04;;;;;;;41.72;23.70;;;12.20;99.90;;;;;;5028228;28;20384;-85
2023/09/14 02:08:30;;;;;;;51.33;24.92;;;12.20;99.90;;;;;;5019872;28;20026;-86
2023/09/14 02:10:56;;;;;;;40.45;23.60;;;12.20;99.90;;;;;;5016335;28;20025;-86
2023/09/14 02:13:22;;;;;;;36.47;22.58;;;12.20;99.90;;;;;;5035678;28;20108;-84
2023/09/14 02:15:49;;;;;;;43.38;24.00;;;12.20;99.90;;;;;;5036732;28;20056;-85
2023/09/14 02:18:14;;;;;;;37.83;24.20;;;12.20;99.90;;;;;;5021406;28;20029;-87
2023/09/14 02:20:40;;;;;;;42.22;24.20;;;12.10;99.90;;;;;;5014034;28;20030;-88
2023/09/14 02:23:07;;;;;;;39.55;26.23;;;12.10;99.90;;;;;;5025645;28;20036;-88
2023/09/14 02:25:33;;;;;;;45.72;24.83;;;12.10;99.90;;;;;;5051791;28;20024;-88
2023/09/14 02:27:59;;;;;;;42.13;24.73;;;12.10;99.90;;;;;;5047043;28;20060;-88
2023/09/14 02:30:26;;;;;;;41.05;26.25;;;12.00;99.90;;;;;;5039362;28;20055;-87
2023/09/14 02:32:52;;;;;;;46.55;25.77;;;12.00;99.90;;;;;;5038018;28;20044;-88
2023/09/14 02:35:18;;;;;;;43.28;26.02;;;12.00;99.90;;;;;;5038405;28;20033;-86
2023/09/14 02:37:44;;;;;;;41.80;25.20;;;12.00;99.90;;;;;;5033298;28;20376;-87
2023/09/14 02:40:11;;;;;;;39.67;25.63;;;12.00;99.90;;;;;;5030348;28;20115;-87
2023/09/14 02:42:37;;;;;;;44.17;24.80;;;12.00;99.90;;;;;;5027106;28;20025;-87
2023/09/14 02:45:06;;;;;;;52.47;26.57;;;11.90;99.90;;;;;;5029243;28;20384;-88
2023/09/14 02:47:32;;;;;;;41.67;24.08;;;12.00;99.90;;;;;;5022499;28;20025;-85
2023/09/14 02:49:59;;;;;;;36.10;24.98;;;12.00;99.90;;;;;;5035401;28;20021;-87
2023/09/14 02:52:24;;;;;;;40.63;24.08;;;12.00;99.90;;;;;;5045210;28;20041;-87
2023/09/14 02:54:50;;;;;;;42.90;24.38;;;12.00;99.90;;;;;;5021135;28;20033;-86
2023/09/14 02:57:16;;;;;;;49.17;25.52;;;12.00;99.90;;;;;;5032337;28;20024;-87
2023/09/14 02:59:42;;;;;;;36.13;25.52;;;12.00;99.90;;;;;;5034887;28;20030;-86
2023/09/14 03:02:08;;;;;;;39.95;24.90;;;11.90;99.90;;;;;;5034773;28;20017;-87
2023/09/14 03:04:34;;;;;;;38.33;26.15;;;11.90;99.90;;;;;;5033766;28;20037;-86
2023/09/14 03:07:00;;;;;;;45.60;25.15;;;11.90;99.90;;;;;;5020389;28;20080;-87
2023/09/14 03:09:25;;;;;;;37.47;26.15;;;11.90;99.90;;;;;;5034457;28;20025;-85
2023/09/14 03:11:51;;;;;;;38.45;25.13;;;11.90;99.90;;;;;;5032793;28;20057;-85
2023/09/14 03:14:17;;;;;;;40.95;25.33;;;11.90;99.90;;;;;;5033882;28;20024;-86
2023/09/14 03:16:43;;;;;;;46.97;26.08;;;11.90;99.90;;;;;;5034188;28;20598;-85
2023/09/14 03:19:08;;;;;;;48.53;27.17;;;11.90;99.90;;;;;;5034710;28;20071;-86
2023/09/14 03:21:34;;;;;;;48.45;27.27;;;11.90;99.90;;;;;;5034705;28;20068;-86
2023/09/14 03:24:00;;;;;;;47.22;27.65;;;11.90;99.90;;;;;;5033391;28;20383;-87
2023/09/14 03:26:28;;;;;;;45.08;26.65;;;11.90;99.90;;;;;;5047056;28;20107;-87
2023/09/14 03:28:55;;;;;;;44.95;27.00;;;12.00;99.90;;;;;;5034272;28;20082;-85
2023/09/14 03:31:21;;;;;;;35.33;26.45;;;12.00;99.90;;;;;;5049250;28;20017;-86
2023/09/14 03:33:49;;;;;;;43.65;27.30;;;12.00;99.90;;;;;;5060985;28;20013;-85
2023/09/14 03:36:16;;;;;;;46.50;26.05;;;12.10;99.90;;;;;;5041659;28;20705;-86
2023/09/14 03:38:42;;;;;;;42.97;27.23;;;12.20;99.90;;;;;;5016183;28;20017;-86
2023/09/14 03:41:10;;;;;;;53.92;28.75;;;12.20;99.90;;;;;;5015373;28;20033;-85
2023/09/14 03:43:36;;;;;;;47.53;26.33;;;12.30;99.90;;;;;;5023327;28;20033;-86
2023/09/14 03:46:02;;;;;;;36.10;24.75;;;12.30;99.90;;;;;;5016397;28;20032;-86
2023/09/14 03:48:28;;;;;;;34.80;23.95;;;12.40;99.90;;;;;;5036095;28;20022;-85
2023/09/14 03:50:57;;;;;;;50.58;25.52;;;12.40;99.90;;;;;;5038839;28;20022;-84
2023/09/14 03:53:22;;;;;;;33.72;23.42;;;12.50;99.90;;;;;;5040746;28;20075;-87
2023/09/14 03:55:48;;;;;;;42.58;27.13;;;12.60;99.90;;;;;;5036811;28;20530;-84
2023/09/14 03:58:14;;;;;;;37.30;23.88;;;12.60;99.90;;;;;;5035946;28;20029;-86
2023/09/14 04:00:40;;;;;;;40.78;23.98;;;12.70;99.90;;;;;;5031944;28;20022;-86
2023/09/14 04:03:05;;;;;;;44.25;25.92;;;12.80;99.90;;;;;;5014325;28;20041;-84
2023/09/14 04:05:31;;;;;;;39.33;22.88;;;12.90;99.90;;;;;;5030984;28;20017;-85
2023/09/14 04:07:57;;;;;;;39.65;22.25;;;12.90;99.90;;;;;;5035500;28;20079;-87
2023/09/14 04:10:23;;;;;;;34.90;21.73;;;13.10;99.90;;;;;;5016422;28;20021;-87
2023/09/14 04:12:49;;;;;;;35.33;22.92;;;13.20;99.90;;;;;;5017507;28;20391;-87
2023/09/14 04:15:15;;;;;;;32.73;20.90;;;13.60;99.90;;;;;;5050837;28;20033;-87
2023/09/14 04:17:41;;;;;;;35.42;21.58;;;13.90;99.60;;;;;;5049811;28;20029;-87
2023/09/14 04:20:10;;;;;;;37.17;22.55;;;14.40;98.50;;;;;;5035472;28;20022;-86
2023/09/14 04:22:37;;;;;;;35.47;21.38;;;14.80;97.50;;;;;;5035323;28;20025;-85
2023/09/14 04:25:03;;;;;;;28.85;21.38;;;15.20;96.70;;;;;;5019933;28;20030;-85
2023/09/14 04:27:29;;;;;;;36.30;23.33;;;15.60;95.30;;;;;;5019071;28;20083;-84
2023/09/14 04:29:55;;;;;;;39.40;22.70;;;15.80;94.20;;;;;;5041185;28;20052;-87
2023/09/14 04:32:21;;;;;;;30.98;22.38;;;16.00;93.80;;;;;;5043809;28;20033;-86
2023/09/14 04:34:46;;;;;;;45.85;23.63;;;16.20;93.30;;;;;;5013911;28;20022;-84
2023/09/14 04:37:12;;;;;;;41.80;22.55;;;16.60;92.70;;;;;;5024128;28;20045;-86
2023/09/14 04:39:38;;;;;;;32.80;22.00;;;16.90;91.90;;;;;;5047521;28;20032;-85
2023/09/14 04:42:05;;;;;;;39.22;21.75;;;17.20;90.70;;;;;;5034727;28;20021;-85
2023/09/14 04:44:31;;;;;;;36.85;21.50;;;17.00;90.00;;;;;;5025138;28;20042;-85
2023/09/14 04:46:57;;;;;;;43.45;22.95;;;16.50;90.40;;;;;;5033814;28;20509;-85
2023/09/14 04:49:22;;;;;;;33.97;21.42;;;16.10;91.20;;;;;;5035021;28;20106;-84
2023/09/14 04:51:48;;;;;;;35.47;22.60;;;15.70;91.60;;;;;;5050147;28;20026;-86
2023/09/14 04:54:14;;;;;;;32.78;20.55;;;15.40;92.10;;;;;;5037140;28;20022;-86
2023/09/14 04:56:40;;;;;;;35.58;22.00;;;15.10;92.60;;;;;;5051899;28;20013;-85
2023/09/14 04:59:05;;;;;;;37.28;22.67;;;14.90;93.30;;;;;;5047195;28;20770;-86
2023/09/14 05:01:31;;;;;;;34.00;21.08;;;14.70;93.40;;;;;;5037966;28;20026;-85
2023/09/14 05:03:57;;;;;;;34.70;21.08;;;14.60;93.80;;;;;;5040669;28;20037;-86
2023/09/14 05:06:24;;;;;;;39.80;22.80;;;14.50;94.10;;;;;;5030059;28;20022;-87
2023/09/14 05:08:49;;;;;;;37.28;23.77;;;14.40;94.40;;;;;;5044447;28;20022;-86
2023/09/14 05:11:15;;;;;;;38.83;22.65;;;14.30;94.60;;;;;;5023415;28;20032;-86
2023/09/14 05:13:41;;;;;;;32.42;19.58;;;14.30;94.70;;;;;;5019722;28;20034;-86
2023/09/14 05:16:07;;;;;;;34.05;21.80;;;14.20;94.70;;;;;;5035595;28;20033;-86
2023/09/14 05:18:33;;;;;;;31.27;20.23;;;14.20;94.80;;;;;;5037359;28;20580;-86
2023/09/14 05:20:58;;;;;;;35.28;21.38;;;14.20;94.80;;;;;;5047613;28;20053;-86
2023/09/14 05:23:24;;;;;;;41.50;20.80;;;14.20;95.00;;;;;;5037246;28;20044;-86
2023/09/14 05:25:50;;;;;;;34.17;21.98;;;14.20;95.10;;;;;;5035541;28;20025;-84
2023/09/14 05:28:16;;;;;;;33.08;20.65;;;14.20;95.30;;;;;;5021392;28;20108;-84
2023/09/14 05:30:43;;;;;;;34.97;20.30;;;14.20;95.20;;;;;;5035030;28;20037;-86
2023/09/14 05:33:09;;;;;;;32.22;19.55;;;14.20;95.30;;;;;;5017086;28;20026;-86
2023/09/14 05:35:35;;;;;;;32.72;19.48;;;14.20;95.30;;;;;;5013020;28;20045;-84
2023/09/14 05:38:01;;;;;;;33.13;21.27;;;14.30;95.20;;;;;;5014003;28;20083;-85
2023/09/14 05:40:27;;;;;;;33.80;20.52;;;14.30;95.10;;;;;;5013890;28;20216;-85
2023/09/14 05:42:53;;;;;;;30.27;19.88;;;14.40;94.90;;;;;;5017666;28;20030;-84
2023/09/14 05:45:19;;;;;;;32.92;22.20;;;14.40;94.90;;;;;;5024660;28;20426;-85
2023/09/14 05:47:45;;;;;;;31.52;21.48;;;14.50;94.80;;;;;;5021630;28;20029;-86
2023/09/14 05:50:12;;;;;;;38.35;21.25;;;14.50;94.70;;;;;;5027087;28;20022;-87
2023/09/14 05:52:37;;;;;;;37.10;20.45;;;14.60;94.70;;;;;;5025197;28;20014;-86
2023/09/14 05:55:05;;;;;;;37.25;20.42;;;14.60;94.60;;;;;;5025474;28;20045;-86
2023/09/14 05:57:31;;;;;;;32.22;18.80;;;14.70;94.50;;;;;;5004243;28;20121;-87
2023/09/14 05:59:58;;;;;;;32.30;21.53;;;14.70;94.30;;;;;;5001570;28;20034;-84
2023/09/14 06:02:24;;;;;;;33.88;21.52;;;14.80;94.20;;;;;;5006726;28;20022;-87
2023/09/14 06:04:51;;;;;;;31.45;21.27;;;14.80;94.10;;;;;;4997446;28;20052;-86
2023/09/14 06:07:17;;;;;;;41.72;21.58;;;14.90;93.90;;;;;;4982877;28;20038;-86
2023/09/14 06:09:43;;;;;;;36.05;21.63;;;15.00;93.70;;;;;;5002973;28;20037;-85
2023/09/14 06:12:08;;;;;;;29.63;18.48;;;15.10;93.60;;;;;;4975550;28;20509;-84
2023/09/14 06:14:36;;;;;;;32.35;20.55;;;15.10;93.40;;;;;;4962714;28;20018;-84
2023/09/14 06:17:02;;;;;;;33.22;20.60;;;15.20;93.30;;;;;;4982046;28;20041;-84
2023/09/14 06:19:28;;;;;;;31.13;20.45;;;15.30;93.20;;;;;;4978030;28;20109;-84
2023/09/14 06:21:54;;;;;;;34.63;20.17;;;15.40;93.00;;;;;;5000517;28;20109;-85
2023/09/14 06:24:20;;;;;;;34.63;21.98;;;15.40;92.80;;;;;;4995855;28;20118;-85
2023/09/14 06:26:46;;;;;;;35.85;19.17;;;15.50;92.50;;;;;;4983822;28;20022;-86
2023/09/14 06:29:13;;;;;;;38.23;21.70;;;15.60;92.40;;;;;;5013055;28;20034;-86
2023/09/14 06:31:40;;;;;;;36.50;21.70;;;15.70;92.20;;;;;;5002401;28;20068;-85
2023/09/14 06:34:06;;;;;;;37.08;21.33;;;15.70;92.10;;;;;;5022690;28;20026;-85
2023/09/14 06:36:32;;;;;;;34.13;21.52;;;15.80;92.20;;;;;;5039081;28;20100;-84
2023/09/14 06:38:58;;;;;;;43.05;22.27;;;15.90;92.00;;;;;;5019779;28;20014;-84
2023/09/14 06:41:23;;;;;;;39.50;22.45;;;16.00;91.90;;;;;;5024566;28;20034;-84
2023/09/14 06:43:50;;;;;;;30.27;19.38;;;16.00;92.10;;;;;;5012543;28;20030;-83
2023/09/14 06:46:16;;;;;;;37.15;20.58;;;16.10;91.30;;;;;;5016835;28;20022;-84
2023/09/14 06:48:41;;;;;;;39.45;22.77;;;16.20;91.40;;;;;;5017025;28;20021;-85
2023/09/14 06:51:07;;;;;;;49.60;22.92;;;16.30;91.20;;;;;;5003195;28;20026;-85
2023/09/14 06:53:33;;;;;;;49.95;22.10;;;16.50;91.10;;;;;;5013264;28;20475;-86
2023/09/14 06:56:10;;;;;;;30.15;20.15;;;16.60;90.70;;;;;;5012350;28;20021;-85
2023/09/14 06:58:37;;;;;;;35.58;20.85;;;16.70;90.10;;;;;;5012742;28;20048;-85
2023/09/14 07:01:04;;;;;;;29.10;19.73;;;16.80;90.00;;;;;;5012849;28;20030;-84
2023/09/14 07:03:34;;;;;;;31.98;18.80;;;17.00;89.80;;;;;;5019433;28;20092;-85
2023/09/14 07:06:00;;;;;;;25.88;17.88;;;17.90;89.60;;;;;;5021548;28;20022;-84
2023/09/14 07:08:27;;;;;;;19.70;15.93;;;19.80;85.70;;;;;;5026885;28;20029;-87
2023/09/14 07:10:54;;;;;;;24.25;16.10;;;22.10;77.90;;;;;;5011217;28;20880;-86
2023/09/14 07:13:21;;;;;;;24.55;15.77;;;24.30;70.30;;;;;;5016028;28;20781;-87
2023/09/14 07:15:47;;;;;;;31.80;15.10;;;26.10;63.40;;;;;;5036537;28;20021;-86
2023/09/14 07:18:30;;;;;;;21.30;15.23;;;27.40;59.30;;;;;;5036336;28;20021;-85
2023/09/14 07:20:57;;;;;;;21.50;13.88;;;28.70;56.90;;;;;;5035583;28;20083;-86
2023/09/14 07:23:24;;;;;;;26.17;14.10;;;29.60;52.10;;;;;;5035684;28;20033;-86
2023/09/14 07:25:50;;;;;;;;;;;30.30;49.90;;;;;;5017947;28;20021;-85
2023/09/14 07:28:17;;;;;;;21.23;12.93;;;31.50;47.30;;;;;;5037851;28;20325;-85
2023/09/14 07:30:44;;;;;;;17.02;10.10;;;31.40;47.50;;;;;;5007003;28;20792;-88
2023/09/14 07:33:14;;;;;;;17.92;10.27;;;32.00;45.50;;;;;;5034000;28;20027;-85
2023/09/14 07:35:40;;;;;;;18.08;10.25;;;;;;;;;;5036055;28;20482;-85
2023/09/14 07:38:09;;;;;;;13.55;10.90;;;32.50;44.60;;;;;;5018294;28;20048;-85
2023/09/14 07:40:36;;;;;;;19.35;12.05;;;33.50;43.20;;;;;;5027395;28;20119;-85
2023/09/14 07:43:02;;;;;;;19.30;11.65;;;33.80;41.70;;;;;;5054123;28;20029;-87
2023/09/14 07:45:30;;;;;;;21.43;11.77;;;33.90;41.20;;;;;;5015093;28;20036;-86
2023/09/14 07:47:56;;;;;;;16.75;11.77;;;34.40;40.70;;;;;;5031477;28;20349;-84
2023/09/14 07:50:22;;;;;;;22.15;13.18;;;34.70;40.00;;;;;;5044078;28;20149;-86
2023/09/14 07:52:48;;;;;;;16.20;12.38;;;34.90;39.70;;;;;;5051145;28;20026;-86
2023/09/14 07:55:13;;;;;;;18.70;11.57;;;35.10;38.70;;;;;;5019490;28;20025;-86
2023/09/14 07:57:39;;;;;;;14.82;11.70;;;35.30;39.40;;;;;;5035308;28;20441;-86
2023/09/14 08:00:06;;;;;;;17.60;10.43;;;35.60;37.90;;;;;;5034092;28;20056;-87
2023/09/14 08:02:33;;;;;;;15.18;10.93;;;35.50;38.40;;;;;;5046728;28;20032;-86
2023/09/14 08:04:59;;;;;;;12.35;10.30;;;35.60;38.40;;;;;;5035399;28;20037;-87
2023/09/14 08:07:27;;;;;;;15.90;11.60;;;35.80;38.40;;;;;;5022052;28;20503;-84
2023/09/14 08:09:53;;;;;;;18.73;11.75;;;36.00;37.50;;;;;;5046915;28;20258;-86
2023/09/14 08:12:19;;;;;;;22.00;11.55;;;;;;;;;;5017763;28;20075;-86
2023/09/14 08:14:45;;;;;;;21.10;9.63;;;;;;;;;;5036758;28;20025;-85
2023/09/14 08:17:11;;;;;;;18.08;8.75;;;;;;;;;;5030343;28;20026;-85
2023/09/14 08:19:37;;;;;;;21.80;11.05;;;;;;;;;;5018446;28;20026;-85
2023/09/14 08:22:04;;;;;;;15.52;10.85;;;;;;;;;;5016683;28;20025;-88
2023/09/14 08:24:30;;;;;;;13.48;9.15;;;36.00;37.60;;;;;;5018639;28;20033;-84
2023/09/14 08:26:56;;;;;;;15.90;8.65;;;36.70;35.90;;;;;;5024580;28;20057;-88
2023/09/14 08:29:22;;;;;;;11.65;7.45;;;36.10;36.70;;;;;;5030661;28;20037;-86
2023/09/14 08:31:50;;;;;;;9.00;7.13;;;36.30;36.40;;;;;;5029476;28;20017;-86
2023/09/14 08:34:16;;;;;;;15.57;8.80;;;36.40;36.30;;;;;;5047066;28;20116;-86
2023/09/14 08:36:42;;;;;;;11.70;7.10;;;36.40;36.40;;;;;;5016805;28;20075;-87
2023/09/14 08:39:08;;;;;;;9.65;8.25;;;36.10;36.10;;;;;;5035000;28;20061;-86
2023/09/14 08:41:39;;;;;;;8.27;7.28;;;35.90;36.20;;;;;;5034868;28;20390;-87
2023/09/14 08:44:06;;;;;;;13.73;8.18;;;35.10;36.50;;;;;;5034721;28;20037;-87
2023/09/14 08:46:35;;;;;;;14.07;7.05;;;34.40;38.00;;;;;;5038174;28;20056;-86
2023/09/14 08:49:03;;;;;;;8.30;5.80;;;34.60;37.80;;;;;;5040440;28;20030;-87
2023/09/14 08:51:32;;;;;;;12.68;7.53;;;34.90;37.00;;;;;;5024709;28;20021;-86
2023/09/14 08:53:59;;;;;;;8.07;5.22;;;35.20;37.20;;;;;;5025455;28;20089;-86
2023/09/14 08:56:26;;;;;;;15.00;6.90;;;35.90;37.30;;;;;;5037846;28;20025;-86
2023/09/14 08:58:53;;;;;;;12.85;6.50;;;36.60;36.20;;;;;;5033502;28;20022;-88
2023/09/14 09:01:19;;;;;;;7.95;5.75;;;36.90;35.30;;;;;;5016468;28;20028;-86
2023/09/14 09:03:45;;;;;;;9.43;5.00;;;37.00;35.20;;;;;;5012983;28;20042;-86
2023/09/14 09:06:11;;;;;;;8.70;5.70;;;36.90;34.80;;;;;;5002963;28;20080;-85
2023/09/14 09:08:38;;;;;;;13.07;5.53;;;36.60;35.50;;;;;;5015848;28;20030;-88
2023/09/14 09:11:04;;;;;;;9.93;4.90;;;36.30;35.90;;;;;;5018200;28;20046;-87
2023/09/14 09:13:34;;;;;;;8.25;5.10;;;36.60;35.10;;;;;;5013230;28;20030;-86
2023/09/14 09:16:01;;;;;;;8.75;5.45;;;37.10;35.10;;;;;;5011704;28;20026;-87
2023/09/14 09:18:27;;;;;;;6.00;4.97;;;;;;;;;;5011374;28;20069;-87
2023/09/14 09:20:52;;;;;;;;;;;37.80;34.90;;;;;;5026397;28;20077;-86
2023/09/14 09:23:22;;;;;;;11.02;4.85;;;;;;;;;;5011578;28;19924;-87
2023/09/14 09:25:56;;;;;;;6.05;4.03;;;;;;;;;;5011739;28;20076;-87
2023/09/14 09:28:29;;;;;;;7.18;4.20;;;;;;;;;;4999071;28;20108;-86
2023/09/14 09:30:56;;;;;;;5.25;4.05;;;;;;;;;;5012878;28;20045;-86
2023/09/14 09:33:37;;;;;;;9.30;4.78;;;;;;;;;;5025387;28;20456;-87
2023/09/14 09:36:19;;;;;;;8.63;5.05;;;;;;;;;;5016206;28;20183;-88
2023/09/14 09:38:48;;;;;;;8.23;4.90;;;;;;;;;;5029098;28;20022;-87
2023/09/14 09:41:15;;;;;;;10.27;5.88;;;;;;;;;;5024221;28;20102;-88
2023/09/14 09:43:44;;;;;;;9.75;4.85;;;;;;;;;;5039786;28;20014;-87
2023/09/14 09:46:19;;;;;;;6.95;4.50;;;;;;;;;;5024643;28;20080;-87
2023/09/14 09:48:45;;;;;;;4.70;3.87;;;;;;;;;;5021575;28;20097;-88
2023/09/14 09:51:11;;;;;;;10.27;4.47;;;;;;;;;;5043185;28;20292;-87
2023/09/14 09:53:37;;;;;;;9.85;4.68;;;;;;;;;;5033907;28;20057;-86
2023/09/14 09:56:04;;;;;;;6.18;4.10;;;;;;;;;;5036952;28;20025;-86
2023/09/14 09:58:36;;;;;;;5.10;4.40;;;;;;;;;;5022150;28;20033;-86
2023/09/14 10:01:02;;;;;;;4.95;4.43;;;;;;;;;;5034364;28;20025;-87
2023/09/14 10:03:30;;;;;;;6.72;4.97;;;;;;;;;;5016129;28;20116;-86
2023/09/14 10:05:56;;;;;;;7.38;4.88;;;;;;;;;;5033611;28;20487;-86
2023/09/14 10:08:22;;;;;;;9.35;5.72;;;;;;;;;;5027340;28;20056;-86
2023/09/14 10:10:52;;;;;;;10.77;5.10;;;;;;;;;;5038134;28;20053;-87
2023/09/14 10:13:19;;;;;;;10.27;5.40;;;;;;;;;;5035843;28;20088;-87
2023/09/14 10:15:46;;;;;;;7.85;7.03;;;;;;;;;;5034881;28;20029;-87
2023/09/14 10:18:13;;;;;;;7.40;5.63;;;;;;;;;;5053847;28;20025;-87
2023/09/14 10:20:39;;;;;;;7.68;4.95;;;;;;;;;;5040282;28;20052;-87
2023/09/14 10:23:07;;;;;;;15.88;9.82;;;34.10;38.00;;;;;;5034956;28;20497;-87
2023/09/14 10:25:33;;;;;;;7.57;6.78;;;;;;;;;;5044537;28;20038;-86
2023/09/14 10:28:02;;;;;;;12.30;7.00;;;30.10;39.70;;;;;;5002376;28;20037;-87
2023/09/14 10:30:28;;;;;;;9.38;6.07;;;27.30;43.80;;;;;;5033877;28;20792;-86
2023/09/14 10:32:57;;;;;;;8.77;4.70;;;26.20;45.60;;;;;;5013293;28;20473;-86
2023/09/14 10:35:24;;;;;;;6.25;4.72;;;25.60;46.20;;;;;;5021759;28;20026;-86
2023/09/14 10:37:50;;;;;;;6.80;5.22;;;25.20;47.20;;;;;;5032218;28;20022;-87
2023/09/14 10:40:17;;;;;;;7.77;5.60;;;24.40;48.30;;;;;;5025151;28;20044;-84
2023/09/14 10:42:43;;;;;;;5.85;5.22;;;24.00;49.60;;;;;;4995517;28;20022;-84
2023/09/14 10:45:11;;;;;;;5.43;4.65;;;23.70;49.90;;;;;;5025552;28;20080;-87
2023/09/14 10:47:41;;;;;;;10.52;7.15;;;23.40;50.60;;;;;;5024056;28;20396;-85
2023/09/14 10:50:09;;;;;;;9.18;4.88;;;23.20;51.30;;;;;;5018827;28;20025;-86
2023/09/14 10:52:37;;;;;;;6.03;4.72;;;23.10;51.20;;;;;;5018042;28;20076;-85
2023/09/14 10:55:09;;;;;;;7.55;5.28;;;22.80;51.60;;;;;;5035999;28;20022;-86
2023/09/14 10:57:38;;;;;;;5.97;4.93;;;22.50;52.20;;;;;;5026657;28;20063;-87
2023/09/14 11:00:05;;;;;;;8.50;6.03;;;22.40;52.80;;;;;;5038817;28;20101;-88
2023/09/14 11:02:54;;;;;;;7.75;5.03;;;22.20;53.30;;;;;;5048623;28;20053;-86
2023/09/14 11:05:24;;;;;;;12.25;6.03;;;22.00;53.40;;;;;;5039724;28;20037;-86
2023/09/14 11:08:04;;;;;;;7.93;5.10;;;21.80;54.30;;;;;;5043299;28;20045;-86
2023/09/14 11:10:31;;;;;;;9.10;5.50;;;21.80;54.30;;;;;;5034577;28;20081;-86
2023/09/14 11:13:18;;;;;;;7.50;4.40;;;21.50;55.00;;;;;;5049996;28;20021;-85
2023/09/14 11:15:47;;;;;;;7.63;5.30;;;21.50;55.00;;;;;;5056013;28;20033;-87
2023/09/14 11:18:19;;;;;;;7.38;4.90;;;21.30;55.80;;;;;;5059487;28;20151;-85
2023/09/14 11:20:46;;;;;;;5.95;4.35;;;21.40;55.60;;;;;;5050890;28;20434;-86
2023/09/14 11:23:11;;;;;;;6.55;4.70;;;21.10;55.70;;;;;;5005461;28;20026;-87
2023/09/14 11:25:41;;;;;;;8.95;5.25;;;21.00;55.90;;;;;;5035998;28;20423;-87
2023/09/14 11:28:08;;;;;;;10.05;5.97;;;21.00;56.30;;;;;;5054722;28;20005;-88
2023/09/14 11:30:44;;;;;;;6.82;4.60;;;21.10;56.30;;;;;;5046509;28;20021;-84
2023/09/14 11:33:10;;;;;;;7.78;5.53;;;21.10;56.10;;;;;;5036765;28;20026;-87
2023/09/14 11:35:44;;;;;;;5.57;4.65;;;21.20;56.10;;;;;;5041475;28;20376;-87
2023/09/14 11:38:16;;;;;;;6.43;4.45;;;21.30;55.50;;;;;;5035754;28;20452;-85
2023/09/14 11:40:43;;;;;;;6.93;5.15;;;21.20;55.40;;;;;;5037100;28;20033;-86
2023/09/14 11:43:23;;;;;;;10.13;5.03;;;21.10;55.80;;;;;;5044478;28;20029;-86
2023/09/14 11:46:00;;;;;;;6.13;4.65;;;21.10;56.10;;;;;;5043844;28;20037;-86
2023/09/14 11:48:38;;;;;;;10.65;5.60;;;21.20;56.80;;;;;;5017968;28;20017;-87
2023/09/14 11:51:04;;;;;;;12.68;7.82;;;21.30;56.80;;;;;;5017673;28;20033;-87
2023/09/14 11:53:37;;;;;;;10.40;6.68;;;21.30;57.00;;;;;;5036556;28;20025;-87
2023/09/14 11:56:03;;;;;;;13.27;7.82;;;21.40;57.50;;;;;;5029188;28;20045;-85
2023/09/14 11:58:34;;;;;;;10.68;6.50;;;21.40;57.30;;;;;;5018940;28;20067;-88
2023/09/14 12:01:01;;;;;;;10.75;6.38;;;21.60;57.10;;;;;;5035361;28;20547;-86
2023/09/14 12:03:27;;;;;;;13.23;5.68;;;21.80;56.70;;;;;;5017076;28;20095;-84
2023/09/14 12:05:57;;;;;;;13.13;6.50;;;22.00;56.10;;;;;;5031343;28;20026;-86
2023/09/14 12:08:23;;;;;;;7.20;5.13;;;22.00;56.20;;;;;;5025318;28;20048;-86
2023/09/14 12:10:54;;;;;;;7.47;5.75;;;22.00;55.80;;;;;;5033738;28;20030;-86
2023/09/14 12:13:20;;;;;;;5.15;4.63;;;22.00;55.90;;;;;;5035879;28;20017;-86
2023/09/14 12:15:48;;;;;;;6.93;5.47;;;21.60;56.20;;;;;;5033963;28;20033;-86
2023/09/14 12:18:17;;;;;;;11.43;6.05;;;21.10;57.40;;;;;;5042300;28;20028;-86
2023/09/14 12:20:45;;;;;;;8.80;5.28;;;21.00;57.90;;;;;;5019588;28;20079;-85
2023/09/14 12:23:13;;;;;;;10.10;6.00;;;20.80;58.00;;;;;;5003366;28;20033;-87
2023/09/14 12:25:40;;;;;;;9.73;5.53;;;20.80;58.40;;;;;;5035573;28;20029;-87
2023/09/14 12:28:08;;;;;;;6.93;4.63;;;20.90;58.20;;;;;;5035955;28;20021;-86
2023/09/14 12:30:36;;;;;;;11.93;6.18;;;20.90;58.20;;;;;;5017078;28;20025;-87
2023/09/14 12:33:03;;;;;;;8.90;4.93;;;20.90;58.60;;;;;;5034912;28;20108;-85
2023/09/14 12:35:30;;;;;;;15.35;6.30;;;21.10;58.40;;;;;;5034007;28;20080;-90
2023/09/14 12:38:01;;;;;;;;;;;21.10;58.10;;;;;;5020522;28;20063;-87
2023/09/14 12:40:27;;;;;;;7.40;4.55;;;21.30;57.60;;;;;;5011554;28;19910;-85
2023/09/14 12:42:53;;;;;;;7.00;4.07;;;21.40;57.00;;;;;;5014141;28;20025;-86
2023/09/14 12:45:20;;;;;;;8.38;4.18;;;21.20;56.60;;;;;;5035939;28;20026;-85
2023/09/14 12:47:47;;;;;;;5.32;4.22;;;21.00;57.10;;;;;;5046524;28;20021;-86